Time;durP1;ratioP1;P1;durP2;ratioP2;P2;SDS_P1;SDS_P2;PMS_P1;PMS_P2;Temp;Humidity;BMP_temperature;BMP_pressure;BME280_temperature;BME280_humidity;BME280_pressure;Samples;Min_cycle;Max_cycle;Signal;HPM_P1;HPM_P2
2023/04/09 00:01:26;;;;;;;18.00;10.70;;;6.50;99.90;;;;;;5154760;27;20438;-92
2023/04/09 00:03:52;;;;;;;16.93;10.27;;;6.50;99.90;;;;;;5154643;27;20444;-91
2023/04/09 00:06:19;;;;;;;22.00;11.87;;;6.50;99.90;;;;;;5154701;27;20470;-91
2023/04/09 00:08:46;;;;;;;24.20;11.33;;;6.40;99.90;;;;;;5179086;27;20460;-93
2023/04/09 00:11:13;;;;;;;16.97;10.50;;;6.40;99.90;;;;;;5179410;27;20466;-91
2023/04/09 00:13:39;;;;;;;22.80;11.60;;;6.40;99.90;;;;;;5155007;27;20442;-91
2023/04/09 00:16:06;;;;;;;18.80;11.17;;;6.40;99.90;;;;;;5153786;27;20453;-91
2023/04/09 00:18:35;;;;;;;22.60;11.70;;;6.40;99.90;;;;;;5153330;27;20464;-91
2023/04/09 00:21:01;;;;;;;17.60;11.10;;;6.40;99.90;;;;;;5154109;27;20442;-91
2023/04/09 00:23:28;;;;;;;21.80;11.83;;;6.30;99.90;;;;;;5153759;27;20444;-90
2023/04/09 00:25:55;;;;;;;22.70;11.20;;;6.30;99.90;;;;;;5154062;27;20909;-91
2023/04/09 00:28:21;;;;;;;21.13;11.47;;;6.30;99.90;;;;;;5154042;27;20478;-91
2023/04/09 00:30:48;;;;;;;17.73;10.80;;;6.30;99.90;;;;;;5154167;27;20557;-89
2023/04/09 00:33:15;;;;;;;18.80;11.07;;;6.30;99.90;;;;;;5154097;27;20443;-90
2023/04/09 00:35:43;;;;;;;21.87;11.53;;;6.30;99.90;;;;;;5153431;27;20454;-91
2023/04/09 00:38:09;;;;;;;16.63;9.90;;;6.20;99.90;;;;;;5154202;27;20467;-91
2023/04/09 00:40:36;;;;;;;17.40;11.03;;;6.30;99.90;;;;;;5154124;27;20444;-91
2023/04/09 00:43:03;;;;;;;21.70;10.90;;;6.20;99.90;;;;;;5154854;27;20843;-92
2023/04/09 00:45:30;;;;;;;20.20;12.10;;;6.20;99.90;;;;;;5154277;27;20991;-90
2023/04/09 00:47:57;;;;;;;19.50;11.57;;;6.10;99.90;;;;;;5154142;27;20491;-92
2023/04/09 00:50:24;;;;;;;22.33;11.90;;;6.10;99.90;;;;;;5154481;27;20449;-90
2023/04/09 00:52:52;;;;;;;21.03;11.53;;;6.10;99.90;;;;;;5153956;27;20941;-92
2023/04/09 00:55:22;;;;;;;21.93;12.10;;;6.10;99.90;;;;;;5154223;27;20457;-92
2023/04/09 00:57:48;;;;;;;23.37;11.00;;;6.00;99.90;;;;;;5153817;27;20457;-91
2023/04/09 01:00:16;;;;;;;22.27;11.53;;;6.00;99.90;;;;;;5134774;27;20449;-92
2023/04/09 01:02:43;;;;;;;20.50;11.37;;;6.00;99.90;;;;;;5154462;27;20513;-91
2023/04/09 01:05:11;;;;;;;21.87;11.53;;;5.90;99.90;;;;;;5153524;27;20500;-91
2023/04/09 01:07:53;;;;;;;19.97;11.70;;;5.80;99.90;;;;;;5153327;27;20486;-92
2023/04/09 01:10:28;;;;;;;19.10;10.77;;;5.80;99.90;;;;;;5154094;27;20441;-92
2023/04/09 01:13:07;;;;;;;15.30;10.20;;;5.80;99.90;;;;;;5153697;27;20436;-91
2023/04/09 01:15:38;;;;;;;15.00;9.90;;;5.80;99.90;;;;;;5154093;27;20448;-89
2023/04/09 01:18:07;;;;;;;19.60;10.33;;;5.70;99.90;;;;;;5154173;27;20463;-91
2023/04/09 01:20:39;;;;;;;16.47;10.30;;;5.70;99.90;;;;;;5154063;27;20481;-91
2023/04/09 01:23:16;;;;;;;19.87;11.17;;;5.70;99.90;;;;;;5154044;27;20513;-90
2023/04/09 01:26:01;;;;;;;17.20;10.63;;;5.70;99.90;;;;;;5152872;27;20861;-91
2023/04/09 01:28:33;;;;;;;17.23;10.57;;;5.70;99.90;;;;;;5153720;27;20464;-91
2023/04/09 01:31:02;;;;;;;16.50;10.40;;;5.80;99.90;;;;;;5145796;27;20448;-91
2023/04/09 01:33:31;;;;;;;17.93;10.20;;;5.80;99.90;;;;;;5153699;27;20843;-91
2023/04/09 01:35:59;;;;;;;24.60;11.07;;;5.80;99.90;;;;;;5153486;27;20456;-92
2023/04/09 01:38:27;;;;;;;21.03;11.90;;;5.80;99.90;;;;;;5153413;27;20478;-92
2023/04/09 01:40:56;;;;;;;23.50;11.97;;;5.80;99.90;;;;;;5153624;27;20453;-90
2023/04/09 01:43:24;;;;;;;23.20;12.10;;;5.80;99.90;;;;;;5153722;27;20946;-92
2023/04/09 01:45:52;;;;;;;21.13;11.53;;;5.80;99.90;;;;;;5154931;27;20503;-91
2023/04/09 01:48:20;;;;;;;19.70;11.63;;;5.80;99.90;;;;;;5158146;27;20529;-92
2023/04/09 01:50:47;;;;;;;22.37;12.10;;;5.80;99.90;;;;;;5157112;27;20533;-92
2023/04/09 01:53:14;;;;;;;17.67;10.33;;;5.80;99.90;;;;;;5157629;27;20453;-91
2023/04/09 01:55:41;;;;;;;22.77;11.17;;;5.80;99.90;;;;;;5157844;27;20863;-91
2023/04/09 01:58:07;;;;;;;20.80;11.10;;;5.80;99.90;;;;;;5157667;27;20521;-91
2023/04/09 02:00:37;;;;;;;18.93;10.67;;;5.80;99.90;;;;;;5157244;27;20942;-90
2023/04/09 02:03:15;;;;;;;19.10;11.20;;;5.80;99.90;;;;;;5157367;27;20441;-92
2023/04/09 02:05:54;;;;;;;23.80;11.47;;;5.80;99.90;;;;;;5157229;27;20451;-91
2023/04/09 02:08:22;;;;;;;21.73;12.00;;;5.80;99.90;;;;;;5157042;27;20466;-92
2023/04/09 02:10:54;;;;;;;20.37;11.77;;;5.80;99.90;;;;;;5156768;27;20473;-92
2023/04/09 02:13:21;;;;;;;20.87;12.50;;;5.80;99.90;;;;;;5156879;27;20888;-92
2023/04/09 02:15:49;;;;;;;23.50;12.70;;;5.80;99.90;;;;;;5156643;27;20486;-91
2023/04/09 02:18:26;;;;;;;22.57;11.87;;;5.80;99.90;;;;;;5156914;27;20480;-91
2023/04/09 02:20:53;;;;;;;27.90;11.20;;;5.80;99.90;;;;;;5157264;27;20453;-92
2023/04/09 02:23:20;;;;;;;22.47;12.27;;;5.80;99.90;;;;;;5165510;27;20509;-91
2023/04/09 02:25:47;;;;;;;19.33;11.13;;;5.80;99.90;;;;;;5155813;27;20441;-92
2023/04/09 02:28:14;;;;;;;25.30;11.93;;;5.80;99.90;;;;;;5156534;27;20505;-91
2023/04/09 02:30:41;;;;;;;21.13;12.27;;;5.80;99.90;;;;;;5156500;27;20450;-91
2023/04/09 02:33:08;;;;;;;19.00;10.83;;;5.80;99.90;;;;;;5156785;27;20453;-90
2023/04/09 02:35:36;;;;;;;19.47;11.93;;;5.80;99.90;;;;;;5156266;27;20436;-89
2023/04/09 02:38:03;;;;;;;25.60;12.60;;;5.80;99.90;;;;;;5156559;27;20467;-91
2023/04/09 02:40:30;;;;;;;21.93;12.27;;;5.80;99.90;;;;;;5156122;27;20457;-91
2023/04/09 02:42:58;;;;;;;19.50;11.40;;;5.80;99.90;;;;;;5156415;27;20513;-91
2023/04/09 02:45:24;;;;;;;23.50;12.40;;;5.80;99.90;;;;;;5156106;27;20486;-92
2023/04/09 02:47:51;;;;;;;19.87;11.77;;;5.90;99.90;;;;;;5156055;27;20846;-90
2023/04/09 02:50:18;;;;;;;19.97;12.00;;;5.90;99.90;;;;;;5156188;27;20518;-91
2023/04/09 02:52:47;;;;;;;21.03;12.00;;;5.90;99.90;;;;;;5156024;27;20523;-91
2023/04/09 02:55:14;;;;;;;25.67;13.70;;;5.90;99.90;;;;;;5156383;27;20448;-90
2023/04/09 02:57:41;;;;;;;24.80;11.93;;;5.90;99.90;;;;;;5155324;27;20461;-90
2023/04/09 03:00:09;;;;;;;24.10;13.10;;;5.90;99.90;;;;;;5155694;27;20445;-91
2023/04/09 03:02:35;;;;;;;23.70;12.67;;;5.90;99.90;;;;;;5156323;27;20805;-91
2023/04/09 03:05:03;;;;;;;23.70;13.53;;;5.90;99.90;;;;;;5147466;27;20515;-90
2023/04/09 03:07:29;;;;;;;20.60;11.90;;;6.10;99.90;;;;;;5155693;27;20550;-90
2023/04/09 03:09:58;;;;;;;22.97;12.17;;;6.00;99.90;;;;;;5165855;27;20430;-91
2023/04/09 03:12:24;;;;;;;22.43;12.90;;;6.00;99.90;;;;;;5180449;27;20470;-92
2023/04/09 03:14:51;;;;;;;21.33;12.13;;;6.10;99.90;;;;;;5171626;27;20507;-91
2023/04/09 03:17:18;;;;;;;25.50;12.90;;;6.00;99.90;;;;;;5155396;27;20456;-91
2023/04/09 03:19:44;;;;;;;20.10;11.30;;;6.00;99.90;;;;;;5155466;27;20447;-91
2023/04/09 03:22:11;;;;;;;20.70;13.00;;;6.00;99.90;;;;;;5156388;27;20482;-91
2023/04/09 03:24:38;;;;;;;23.00;13.20;;;6.00;99.90;;;;;;5155552;27;20503;-88
2023/04/09 03:27:06;;;;;;;25.83;12.60;;;6.00;99.90;;;;;;5155854;27;20898;-90
2023/04/09 03:29:32;;;;;;;19.77;11.50;;;5.90;99.90;;;;;;5155756;27;20439;-89
2023/04/09 03:31:59;;;;;;;23.77;12.30;;;5.90;99.90;;;;;;5155470;27;20544;-90
2023/04/09 03:34:26;;;;;;;22.10;12.80;;;5.90;99.90;;;;;;5155860;27;20449;-91
2023/04/09 03:36:52;;;;;;;26.37;13.27;;;5.90;99.90;;;;;;5155151;27;20450;-89
2023/04/09 03:39:19;;;;;;;26.20;12.73;;;5.90;99.90;;;;;;5155501;27;20437;-90
2023/04/09 03:41:47;;;;;;;27.40;14.23;;;5.90;99.90;;;;;;5155213;27;20513;-89
2023/04/09 03:44:15;;;;;;;24.10;13.20;;;5.90;99.90;;;;;;5155635;27;20450;-90
2023/04/09 03:46:42;;;;;;;27.60;13.37;;;6.10;99.90;;;;;;5155367;27;20479;-89
2023/04/09 03:49:08;;;;;;;23.50;13.40;;;5.80;99.90;;;;;;5155288;27;20512;-90
2023/04/09 03:51:35;;;;;;;28.93;15.10;;;5.80;99.90;;;;;;5155702;27;20504;-90
2023/04/09 03:54:02;;;;;;;27.67;14.73;;;5.90;99.90;;;;;;5154983;27;20843;-90
2023/04/09 03:56:28;;;;;;;29.10;14.10;;;5.90;99.90;;;;;;5155495;27;20437;-90
2023/04/09 03:58:55;;;;;;;24.40;13.53;;;5.80;99.90;;;;;;5155250;27;20482;-91
2023/04/09 04:01:23;;;;;;;26.20;13.97;;;5.90;99.90;;;;;;5155376;27;20445;-91
2023/04/09 04:03:50;;;;;;;23.00;13.80;;;5.90;99.90;;;;;;5155025;27;20441;-91
2023/04/09 04:06:16;;;;;;;27.20;13.27;;;5.90;99.90;;;;;;5155084;27;20454;-90
2023/04/09 04:08:43;;;;;;;24.80;13.97;;;5.90;99.90;;;;;;5155553;27;20457;-91
2023/04/09 04:11:10;;;;;;;29.07;13.90;;;5.90;99.90;;;;;;5154684;27;20445;-91
2023/04/09 04:13:37;;;;;;;26.47;14.27;;;5.90;99.90;;;;;;5154920;27;20892;-91
2023/04/09 04:16:07;;;;;;;29.73;15.47;;;5.90;99.90;;;;;;5153920;27;20771;-92
2023/04/09 04:18:35;;;;;;;27.27;14.00;;;5.90;99.90;;;;;;5154852;27;20598;-91
2023/04/09 04:21:02;;;;;;;25.20;13.40;;;5.90;99.90;;;;;;5154709;27;20975;-92
2023/04/09 04:23:29;;;;;;;29.40;14.80;;;5.90;99.90;;;;;;5154425;27;20846;-91
2023/04/09 04:25:56;;;;;;;31.10;13.83;;;5.80;99.90;;;;;;5154656;27;20444;-91
2023/04/09 04:28:23;;;;;;;26.43;13.83;;;5.90;99.90;;;;;;5154499;27;21020;-91
2023/04/09 04:30:50;;;;;;;26.00;14.03;;;5.80;99.90;;;;;;5154630;27;20448;-91
2023/04/09 04:33:17;;;;;;;24.43;14.13;;;5.80;99.90;;;;;;5155051;27;20478;-91
2023/04/09 04:35:45;;;;;;;27.47;13.70;;;5.80;99.90;;;;;;5155140;27;20449;-90
2023/04/09 04:38:12;;;;;;;24.80;13.40;;;5.80;99.90;;;;;;5154535;27;20461;-90
2023/04/09 04:40:38;;;;;;;27.77;14.90;;;5.80;99.90;;;;;;5154861;27;20795;-90
2023/04/09 04:43:05;;;;;;;27.30;14.90;;;5.80;99.90;;;;;;5159219;27;21241;-89
2023/04/09 04:45:32;;;;;;;27.93;13.87;;;5.70;99.90;;;;;;5156027;27;20442;-90
2023/04/09 04:47:58;;;;;;;27.50;14.60;;;5.70;99.90;;;;;;5153956;27;20495;-90
2023/04/09 04:50:25;;;;;;;25.50;14.03;;;5.70;99.90;;;;;;5154150;27;20456;-90
2023/04/09 04:52:53;;;;;;;29.97;14.43;;;5.70;99.90;;;;;;5154307;27;20453;-91
2023/04/09 04:55:20;;;;;;;26.87;14.60;;;5.70;99.90;;;;;;5154347;27;20445;-91
2023/04/09 04:57:47;;;;;;;26.50;13.80;;;5.70;99.90;;;;;;5153682;27;20472;-91
2023/04/09 05:00:14;;;;;;;28.17;15.00;;;5.70;99.90;;;;;;5154662;27;20453;-91
2023/04/09 05:02:41;;;;;;;31.40;14.57;;;5.70;99.90;;;;;;5154220;27;20448;-91
2023/04/09 05:05:08;;;;;;;32.53;15.53;;;5.70;99.90;;;;;;5153941;27;20464;-91
2023/04/09 05:07:35;;;;;;;30.77;15.47;;;5.70;99.90;;;;;;5153918;27;20487;-91
2023/04/09 05:10:03;;;;;;;30.93;16.00;;;5.70;99.90;;;;;;5154034;27;20453;-91
2023/04/09 05:12:31;;;;;;;30.87;16.87;;;5.80;99.90;;;;;;5153846;27;20504;-91
2023/04/09 05:14:58;;;;;;;30.00;15.50;;;5.70;99.90;;;;;;5153640;27;20516;-91
2023/04/09 05:17:24;;;;;;;25.70;14.03;;;5.70;99.90;;;;;;5154366;27;20473;-91
2023/04/09 05:19:52;;;;;;;32.63;14.83;;;5.70;99.90;;;;;;5154672;27;20519;-91
2023/04/09 05:22:18;;;;;;;29.00;16.07;;;5.70;99.90;;;;;;5158210;27;20473;-90
2023/04/09 05:24:45;;;;;;;29.00;14.63;;;5.80;99.90;;;;;;5157515;27;20456;-90
2023/04/09 05:27:13;;;;;;;26.90;14.30;;;5.80;99.90;;;;;;5159151;27;20541;-91
2023/04/09 05:29:40;;;;;;;28.60;14.60;;;5.80;99.90;;;;;;5159394;27;20454;-91
2023/04/09 05:32:08;;;;;;;30.77;14.27;;;5.80;99.90;;;;;;5159880;27;20874;-90
2023/04/09 05:34:35;;;;;;;27.33;13.80;;;5.90;99.90;;;;;;5160190;27;20987;-89
2023/04/09 05:37:01;;;;;;;26.70;14.43;;;5.90;99.90;;;;;;5157313;27;20472;-91
2023/04/09 05:39:28;;;;;;;29.57;15.83;;;5.90;99.90;;;;;;5158972;27;20450;-91
2023/04/09 05:41:55;;;;;;;28.53;14.80;;;5.90;99.90;;;;;;5158005;27;20461;-90
2023/04/09 05:44:23;;;;;;;30.60;15.50;;;6.00;99.90;;;;;;5158160;27;20816;-91
2023/04/09 05:46:50;;;;;;;31.53;15.30;;;6.00;99.90;;;;;;5157954;27;20483;-90
2023/04/09 05:49:17;;;;;;;26.50;14.80;;;6.10;99.90;;;;;;5158081;27;20816;-90
2023/04/09 05:51:44;;;;;;;27.73;14.67;;;6.10;99.90;;;;;;5157756;27;20558;-91
2023/04/09 05:54:10;;;;;;;27.27;15.23;;;6.10;99.90;;;;;;5157806;27;20449;-90
2023/04/09 05:56:37;;;;;;;24.17;14.00;;;6.10;99.90;;;;;;5159685;27;20452;-91
2023/04/09 05:59:04;;;;;;;25.30;14.63;;;6.20;99.90;;;;;;5160160;27;20430;-91
2023/04/09 06:01:32;;;;;;;26.73;14.10;;;6.20;99.90;;;;;;5159444;27;20491;-92
2023/04/09 06:03:58;;;;;;;34.80;15.57;;;6.20;99.90;;;;;;5157094;27;20911;-91
2023/04/09 06:06:25;;;;;;;33.90;17.13;;;6.30;99.90;;;;;;5157643;27;20443;-90
2023/04/09 06:08:52;;;;;;;26.93;14.67;;;6.30;99.90;;;;;;5158185;27;20481;-91
2023/04/09 06:11:20;;;;;;;25.63;13.67;;;6.30;99.90;;;;;;5160690;27;20437;-91
2023/04/09 06:13:46;;;;;;;25.67;15.00;;;6.30;99.90;;;;;;5181747;27;20436;-91
2023/04/09 06:16:13;;;;;;;32.17;16.00;;;6.40;99.90;;;;;;5180714;27;20460;-90
2023/04/09 06:18:41;;;;;;;32.73;16.33;;;6.50;99.90;;;;;;5157481;27;20471;-91
2023/04/09 06:21:09;;;;;;;28.37;15.67;;;6.50;99.90;;;;;;5157083;27;20555;-91
2023/04/09 06:23:36;;;;;;;27.70;14.93;;;6.50;99.90;;;;;;5157947;27;20512;-91
2023/04/09 06:26:03;;;;;;;30.63;15.03;;;6.50;99.90;;;;;;5157288;27;20863;-91
2023/04/09 06:28:30;;;;;;;28.63;15.50;;;6.60;99.90;;;;;;5157030;27;20488;-92
2023/04/09 06:30:57;;;;;;;32.23;15.50;;;6.60;99.90;;;;;;5157436;27;20454;-90
2023/04/09 06:33:24;;;;;;;34.27;16.57;;;6.70;99.90;;;;;;5155846;27;20444;-91
2023/04/09 06:35:52;;;;;;;30.50;15.47;;;6.80;99.90;;;;;;5157076;27;20466;-91
2023/04/09 06:38:19;;;;;;;32.80;17.33;;;6.90;99.90;;;;;;5157142;27;20473;-91
2023/04/09 06:40:46;;;;;;;31.47;16.33;;;7.00;99.90;;;;;;5158738;27;20445;-93
2023/04/09 06:43:13;;;;;;;26.90;15.50;;;7.00;99.90;;;;;;5149816;27;20840;-91
2023/04/09 06:45:40;;;;;;;32.47;16.27;;;7.10;99.90;;;;;;5157750;27;20458;-91
2023/04/09 06:48:06;;;;;;;32.70;15.80;;;7.20;99.90;;;;;;5157247;27;20826;-91
2023/04/09 06:50:33;;;;;;;37.67;16.90;;;7.20;99.90;;;;;;5157169;27;20532;-92
2023/04/09 06:53:01;;;;;;;30.27;16.63;;;7.30;99.90;;;;;;5156717;27;20544;-91
2023/04/09 06:55:28;;;;;;;33.17;17.97;;;7.40;99.90;;;;;;5156691;27;20785;-90
2023/04/09 06:57:55;;;;;;;32.20;16.50;;;7.50;99.90;;;;;;5155962;27;20517;-91
2023/04/09 07:00:22;;;;;;;30.87;15.73;;;7.60;99.90;;;;;;5156049;27;20454;-91
2023/04/09 07:02:49;;;;;;;30.50;16.10;;;7.70;99.90;;;;;;5157487;27;20527;-90
2023/04/09 07:05:16;;;;;;;32.30;16.23;;;7.70;99.90;;;;;;5158321;27;20447;-90
2023/04/09 07:07:43;;;;;;;33.83;18.10;;;7.80;99.90;;;;;;5158250;27;20483;-91
2023/04/09 07:10:11;;;;;;;35.63;18.50;;;7.90;99.90;;;;;;5156609;27;20949;-91
2023/04/09 07:12:38;;;;;;;31.97;17.23;;;8.00;99.90;;;;;;5156905;27;20448;-92
2023/04/09 07:15:06;;;;;;;29.33;16.47;;;8.00;99.90;;;;;;5155721;27;20454;-91
2023/04/09 07:17:34;;;;;;;31.03;17.30;;;8.10;99.90;;;;;;5156560;27;20543;-91
2023/04/09 07:20:00;;;;;;;29.97;17.27;;;8.10;99.90;;;;;;5158839;27;20447;-92
2023/04/09 07:22:29;;;;;;;32.47;17.13;;;8.20;99.90;;;;;;5157817;27;20457;-90
2023/04/09 07:24:56;;;;;;;31.93;17.30;;;8.30;99.90;;;;;;5157508;27;20505;-91
2023/04/09 07:27:25;;;;;;;30.90;16.80;;;8.30;99.90;;;;;;5156189;27;20473;-91
2023/04/09 07:29:52;;;;;;;29.33;17.50;;;8.50;99.90;;;;;;5155828;27;20845;-91
2023/04/09 07:32:19;;;;;;;30.10;16.63;;;8.50;99.90;;;;;;5156735;27;20491;-91
2023/04/09 07:34:45;;;;;;;27.57;16.00;;;8.70;99.90;;;;;;5161099;27;20461;-91
2023/04/09 07:37:12;;;;;;;32.07;17.30;;;8.80;99.90;;;;;;5164869;27;20464;-91
2023/04/09 07:39:39;;;;;;;31.00;17.10;;;8.90;99.90;;;;;;5156934;27;20501;-92
2023/04/09 07:42:06;;;;;;;30.00;16.63;;;9.00;99.90;;;;;;5156539;27;20463;-91
2023/04/09 07:44:35;;;;;;;33.73;17.97;;;9.10;99.90;;;;;;5156533;27;20508;-91
2023/04/09 07:47:02;;;;;;;34.90;18.20;;;9.20;99.90;;;;;;5157934;27;20469;-91
2023/04/09 07:49:29;;;;;;;35.37;18.03;;;9.30;99.90;;;;;;5155234;27;21075;-91
2023/04/09 07:51:56;;;;;;;29.13;17.47;;;9.30;99.90;;;;;;5156008;27;20471;-91
2023/04/09 07:54:23;;;;;;;32.30;17.93;;;9.40;99.90;;;;;;5155834;27;20449;-91
2023/04/09 07:56:50;;;;;;;32.37;18.03;;;9.60;99.90;;;;;;5156354;27;20453;-89
2023/04/09 07:59:17;;;;;;;38.63;18.97;;;9.70;99.90;;;;;;5155163;27;20503;-91
2023/04/09 08:01:45;;;;;;;35.27;17.90;;;9.80;99.90;;;;;;5158787;27;20674;-91
2023/04/09 08:04:13;;;;;;;29.27;17.50;;;10.00;99.90;;;;;;5158861;27;20504;-92
2023/04/09 08:06:40;;;;;;;35.77;18.00;;;10.10;99.90;;;;;;5157958;27;20510;-91
2023/04/09 08:09:06;;;;;;;31.03;18.43;;;10.30;99.90;;;;;;5158159;27;20550;-91
2023/04/09 08:11:33;;;;;;;32.77;17.67;;;10.40;99.90;;;;;;5156501;27;20484;-92
2023/04/09 08:14:03;;;;;;;29.93;17.40;;;10.60;99.90;;;;;;5156798;27;20485;-92
2023/04/09 08:16:30;;;;;;;29.60;17.13;;;10.70;99.90;;;;;;5158243;27;20442;-91
2023/04/09 08:18:58;;;;;;;31.87;16.90;;;10.80;99.90;;;;;;5156659;27;20470;-91
2023/04/09 08:21:25;;;;;;;32.07;17.57;;;10.90;99.90;;;;;;5159555;27;20511;-92
2023/04/09 08:23:52;;;;;;;28.07;16.77;;;11.00;99.90;;;;;;5158548;27;20502;-89
2023/04/09 08:26:19;;;;;;;30.90;17.63;;;10.90;99.90;;;;;;5158803;27;20924;-91
2023/04/09 08:28:45;;;;;;;28.57;17.17;;;10.90;99.90;;;;;;5157667;27;21015;-90
2023/04/09 08:31:12;;;;;;;30.73;17.57;;;10.90;99.90;;;;;;5157226;27;20447;-90
2023/04/09 08:33:39;;;;;;;29.23;16.43;;;11.00;99.90;;;;;;5157158;27;20458;-91
2023/04/09 08:36:10;;;;;;;27.67;16.60;;;10.90;99.90;;;;;;5157321;27;20458;-91
2023/04/09 08:38:37;;;;;;;25.53;16.57;;;10.90;99.90;;;;;;5157983;27;20466;-89
2023/04/09 08:41:04;;;;;;;30.50;17.47;;;11.00;99.90;;;;;;5157729;27;20466;-89
2023/04/09 08:43:33;;;;;;;29.30;16.77;;;11.20;99.90;;;;;;5157205;27;20808;-89
2023/04/09 08:46:01;;;;;;;28.30;17.40;;;11.20;99.90;;;;;;5157169;27;20459;-91
2023/04/09 08:48:29;;;;;;;29.47;15.87;;;11.20;99.90;;;;;;5158104;27;20478;-91
2023/04/09 08:50:56;;;;;;;29.13;17.37;;;11.30;99.90;;;;;;5157433;27;20532;-91
2023/04/09 08:53:25;;;;;;;30.07;17.67;;;11.30;99.90;;;;;;5156938;27;20485;-91
2023/04/09 08:55:51;;;;;;;29.93;16.60;;;11.40;99.90;;;;;;5157153;27;20440;-93
2023/04/09 08:58:18;;;;;;;29.63;17.37;;;11.20;99.90;;;;;;5156286;27;20515;-91
2023/04/09 09:00:45;;;;;;;27.50;16.23;;;11.20;99.90;;;;;;5156871;27;20471;-91
2023/04/09 09:03:12;;;;;;;28.30;16.30;;;11.10;99.90;;;;;;5156498;27;21044;-91
2023/04/09 09:05:40;;;;;;;30.13;18.03;;;11.20;99.90;;;;;;5156506;27;20542;-91
2023/04/09 09:08:08;;;;;;;36.27;17.30;;;11.10;99.90;;;;;;5157019;27;20468;-91
2023/04/09 09:10:41;;;;;;;24.67;15.87;;;11.20;99.90;;;;;;5169990;27;20452;-92
2023/04/09 09:13:18;;;;;;;30.90;16.90;;;11.30;99.90;;;;;;5178485;27;20432;-92
2023/04/09 09:15:46;;;;;;;27.47;16.57;;;11.30;99.90;;;;;;5163523;27;20908;-90
2023/04/09 09:18:13;;;;;;;27.20;15.93;;;11.20;99.90;;;;;;5156240;27;20487;-90
2023/04/09 09:20:40;;;;;;;26.00;16.33;;;11.30;99.90;;;;;;5155888;27;20467;-92
2023/04/09 09:23:07;;;;;;;26.37;15.53;;;11.70;99.90;;;;;;5155953;27;20968;-91
2023/04/09 09:25:38;;;;;;;25.93;16.60;;;12.10;99.90;;;;;;5156158;27;20820;-91
2023/04/09 09:28:11;;;;;;;30.43;17.17;;;12.10;99.90;;;;;;5155604;27;20996;-90
2023/04/09 09:30:39;;;;;;;26.67;16.23;;;12.10;99.90;;;;;;5155910;27;20816;-90
2023/04/09 09:33:07;;;;;;;26.70;16.03;;;12.20;99.90;;;;;;5154414;27;20444;-92
2023/04/09 09:35:50;;;;;;;25.03;16.70;;;12.30;99.90;;;;;;5155031;27;20456;-91
2023/04/09 09:38:17;;;;;;;23.43;15.47;;;12.10;99.90;;;;;;5153861;27;20489;-92
2023/04/09 09:40:44;;;;;;;30.37;16.40;;;12.20;99.90;;;;;;5155122;27;20452;-92
2023/04/09 09:43:12;;;;;;;28.23;16.00;;;12.30;99.90;;;;;;5154199;27;20504;-91
2023/04/09 09:45:42;;;;;;;25.87;15.70;;;12.50;99.90;;;;;;5154133;27;20505;-92
2023/04/09 09:48:11;;;;;;;24.73;15.73;;;12.70;99.90;;;;;;5154178;27;20500;-92
2023/04/09 09:50:40;;;;;;;26.43;16.33;;;12.90;99.90;;;;;;5154341;27;20511;-91
2023/04/09 09:53:09;;;;;;;32.13;17.73;;;13.10;99.90;;;;;;5153825;27;20467;-92
2023/04/09 09:55:40;;;;;;;22.97;14.83;;;13.20;99.90;;;;;;5154623;27;20453;-89
2023/04/09 09:58:12;;;;;;;24.83;15.67;;;13.20;99.90;;;;;;5155302;27;20494;-90
2023/04/09 10:00:40;;;;;;;28.77;17.13;;;13.30;99.90;;;;;;5155628;27;20455;-89
2023/04/09 10:03:13;;;;;;;24.63;15.90;;;13.30;99.90;;;;;;5155245;27;20452;-90
2023/04/09 10:05:41;;;;;;;26.20;16.00;;;13.30;99.90;;;;;;5154096;27;20497;-89
2023/04/09 10:08:09;;;;;;;27.67;15.67;;;13.30;99.90;;;;;;5157345;27;20480;-90
2023/04/09 10:10:38;;;;;;;25.40;17.33;;;13.20;99.90;;;;;;5158109;27;20931;-89
2023/04/09 10:13:06;;;;;;;22.77;15.90;;;13.20;99.90;;;;;;5158230;27;20497;-90
2023/04/09 10:15:33;;;;;;;23.53;15.60;;;13.50;99.90;;;;;;5156964;27;20449;-90
2023/04/09 10:18:02;;;;;;;23.30;16.07;;;13.70;99.90;;;;;;5156396;27;20840;-89
2023/04/09 10:20:35;;;;;;;22.20;15.73;;;13.80;99.90;;;;;;5156158;27;20544;-90
2023/04/09 10:23:09;;;;;;;25.40;16.10;;;14.10;99.90;;;;;;5157331;27;20521;-90
2023/04/09 10:25:36;;;;;;;21.63;15.03;;;14.20;99.90;;;;;;5157860;27;20489;-90
2023/04/09 10:28:14;;;;;;;21.13;15.27;;;14.20;99.90;;;;;;5158040;27;20476;-89
2023/04/09 10:30:41;;;;;;;29.63;17.73;;;14.10;99.90;;;;;;5158502;27;20481;-91
2023/04/09 10:33:11;;;;;;;23.73;15.57;;;14.10;99.90;;;;;;5158283;27;20505;-91
2023/04/09 10:35:38;;;;;;;22.90;15.60;;;14.40;99.90;;;;;;5158679;27;20440;-90
2023/04/09 10:38:08;;;;;;;21.63;14.83;;;14.50;99.90;;;;;;5158877;27;20496;-91
2023/04/09 10:40:35;;;;;;;25.40;15.50;;;14.40;99.90;;;;;;5158662;27;20445;-91
2023/04/09 10:43:04;;;;;;;22.47;15.47;;;14.00;99.90;;;;;;5156947;27;21025;-90
2023/04/09 10:45:40;;;;;;;21.77;14.60;;;13.80;99.90;;;;;;5157524;27;20475;-89
2023/04/09 10:48:13;;;;;;;24.97;15.57;;;14.00;99.90;;;;;;5158535;27;20872;-91
2023/04/09 10:50:43;;;;;;;21.07;15.00;;;13.80;99.90;;;;;;5158962;27;20571;-91
2023/04/09 10:53:21;;;;;;;20.80;13.80;;;13.60;99.90;;;;;;5155704;27;20448;-91
2023/04/09 10:55:49;;;;;;;26.47;16.50;;;13.70;99.90;;;;;;5156348;27;20564;-90
2023/04/09 10:58:16;;;;;;;27.53;14.37;;;13.70;99.90;;;;;;5157198;27;21036;-90
2023/04/09 11:00:44;;;;;;;21.63;13.63;;;13.50;99.90;;;;;;5157450;27;20441;-91
2023/04/09 11:03:24;;;;;;;22.70;14.63;;;13.20;99.90;;;;;;5157237;27;20875;-91
2023/04/09 11:05:55;;;;;;;21.20;14.17;;;12.90;99.90;;;;;;5156434;27;20839;-91
2023/04/09 11:08:22;;;;;;;24.60;15.37;;;12.60;99.90;;;;;;5155995;27;20477;-90
2023/04/09 11:10:49;;;;;;;29.10;17.63;;;12.50;99.90;;;;;;5155976;27;20491;-90
2023/04/09 11:13:17;;;;;;;22.07;14.87;;;12.70;99.90;;;;;;5155584;27;20811;-89
2023/04/09 11:15:45;;;;;;;20.87;14.00;;;13.00;99.90;;;;;;5156119;27;20505;-90
2023/04/09 11:18:14;;;;;;;22.40;15.17;;;13.20;99.90;;;;;;5155276;27;20517;-91
2023/04/09 11:20:43;;;;;;;22.83;15.40;;;13.10;99.90;;;;;;5157071;27;20551;-90
2023/04/09 11:23:11;;;;;;;18.00;12.20;;;12.80;99.90;;;;;;5155571;27;20449;-91
2023/04/09 11:25:38;;;;;;;19.13;12.40;;;12.70;99.90;;;;;;5156616;27;20496;-90
2023/04/09 11:28:06;;;;;;;21.20;13.90;;;12.50;99.90;;;;;;5156205;27;20460;-90
2023/04/09 11:30:34;;;;;;;24.33;14.07;;;12.40;99.90;;;;;;5156083;27;21087;-90
2023/04/09 11:33:01;;;;;;;20.40;13.67;;;12.40;99.90;;;;;;5156032;27;20826;-88
2023/04/09 11:35:28;;;;;;;19.60;13.37;;;12.30;99.90;;;;;;5156311;27;20504;-92
2023/04/09 11:37:56;;;;;;;18.10;12.27;;;12.40;99.90;;;;;;5156241;27;20501;-91
2023/04/09 11:40:24;;;;;;;18.23;12.57;;;12.40;99.90;;;;;;5157400;27;20480;-90
2023/04/09 11:42:52;;;;;;;19.60;13.13;;;12.40;99.90;;;;;;5157629;27;20509;-90
2023/04/09 11:45:21;;;;;;;18.57;12.33;;;12.50;99.90;;;;;;5156206;27;20513;-90
2023/04/09 11:47:48;;;;;;;17.70;12.53;;;12.60;99.90;;;;;;5156219;27;20974;-91
2023/04/09 11:50:15;;;;;;;18.63;12.80;;;12.70;99.90;;;;;;5155100;27;20525;-90
2023/04/09 11:52:43;;;;;;;21.13;13.47;;;12.80;99.90;;;;;;5156403;27;20540;-90
2023/04/09 11:55:11;;;;;;;18.77;12.97;;;13.30;99.90;;;;;;5155973;27;20443;-91
2023/04/09 11:57:41;;;;;;;19.47;12.60;;;13.60;99.90;;;;;;5157401;27;20489;-90
2023/04/09 12:00:10;;;;;;;15.30;12.17;;;13.90;99.90;;;;;;5156634;27;20448;-91
2023/04/09 12:02:40;;;;;;;19.70;13.80;;;14.00;99.90;;;;;;5155173;27;20460;-91
2023/04/09 12:05:09;;;;;;;15.83;11.80;;;14.40;99.90;;;;;;5156378;27;20445;-91
2023/04/09 12:07:36;;;;;;;28.77;17.23;;;14.50;99.90;;;;;;5164294;27;20446;-91
2023/04/09 12:10:05;;;;;;;16.10;11.87;;;14.40;99.90;;;;;;5179388;27;20479;-89
2023/04/09 12:12:43;;;;;;;17.33;12.57;;;14.00;99.90;;;;;;5176812;27;20517;-92
2023/04/09 12:15:31;;;;;;;21.43;14.77;;;13.80;99.90;;;;;;5167834;27;20436;-92
2023/04/09 12:17:58;;;;;;;16.50;12.07;;;13.60;99.90;;;;;;5163407;27;20904;-91
2023/04/09 12:20:30;;;;;;;19.10;12.20;;;13.60;99.90;;;;;;5156791;27;20814;-91
2023/04/09 12:22:58;;;;;;;16.17;11.23;;;13.70;99.90;;;;;;5156467;27;20484;-91
2023/04/09 12:25:25;;;;;;;19.53;13.80;;;13.60;99.90;;;;;;5155253;27;20604;-91
2023/04/09 12:27:54;;;;;;;22.67;15.97;;;13.50;99.90;;;;;;5156226;27;20476;-92
2023/04/09 12:30:21;;;;;;;19.90;13.70;;;13.40;99.90;;;;;;5155767;27;20541;-90
2023/04/09 12:32:48;;;;;;;18.47;12.63;;;13.30;99.90;;;;;;5158091;27;20433;-91
2023/04/09 12:35:15;;;;;;;22.77;16.10;;;13.10;99.90;;;;;;5155130;27;20441;-91
2023/04/09 12:37:42;;;;;;;17.03;11.10;;;13.00;99.90;;;;;;5156229;27;21068;-90